sensor_id;sensor_type;location;lat;lon;timestamp;pressure;altitude;pressure_sealevel;temperature;humidity
76374;BME280;65197;50.164;8.012;2023-07-30T00:01:14;71817.84;;;-144.13;99.16
76374;BME280;65197;50.164;8.012;2023-07-30T00:03:40;71815.91;;;-144.13;99.08
76374;BME280;65197;50.164;8.012;2023-07-30T00:06:05;71823.72;;;-144.13;99.66
76374;BME280;65197;50.164;8.012;2023-07-30T00:08:31;71829.56;;;-144.13;99.69
76374;BME280;65197;50.164;8.012;2023-07-30T00:10:57;71825.66;;;-144.13;98.95
76374;BME280;65197;50.164;8.012;2023-07-30T00:13:23;71833.47;;;-144.13;99.01
76374;BME280;65197;50.164;8.012;2023-07-30T00:15:48;71833.47;;;-144.13;98.60
76374;BME280;65197;50.164;8.012;2023-07-30T00:18:14;71829.56;;;-144.13;97.83
76374;BME280;65197;50.164;8.012;2023-07-30T00:20:40;71825.66;;;-144.13;97.79
76374;BME280;65197;50.164;8.012;2023-07-30T00:23:05;71825.66;;;-144.13;98.19
76374;BME280;65197;50.164;8.012;2023-07-30T00:25:31;71829.56;;;-144.13;97.98
76374;BME280;65197;50.164;8.012;2023-07-30T00:27:56;71837.34;;;-144.13;98.53
76374;BME280;65197;50.164;8.012;2023-07-30T00:30:21;71837.34;;;-144.13;98.41
76374;BME280;65197;50.164;8.012;2023-07-30T00:32:47;71841.25;;;-144.13;98.80
76374;BME280;65197;50.164;8.012;2023-07-30T00:35:12;71831.50;;;-144.13;98.54
76374;BME280;65197;50.164;8.012;2023-07-30T00:37:38;71825.66;;;-144.13;97.69
76374;BME280;65197;50.164;8.012;2023-07-30T00:40:03;71833.47;;;-144.13;98.14
76374;BME280;65197;50.164;8.012;2023-07-30T00:42:29;71845.16;;;-144.13;97.73
76374;BME280;65197;50.164;8.012;2023-07-30T00:44:54;71849.06;;;-144.13;96.33
76374;BME280;65197;50.164;8.012;2023-07-30T00:47:21;71849.06;;;-144.13;95.97
76374;BME280;65197;50.164;8.012;2023-07-30T00:49:47;71849.06;;;-144.13;95.80
76374;BME280;65197;50.164;8.012;2023-07-30T00:52:14;71856.84;;;-144.13;95.22
76374;BME280;65197;50.164;8.012;2023-07-30T00:54:41;71860.75;;;-144.13;94.85
76374;BME280;65197;50.164;8.012;2023-07-30T00:57:06;71854.91;;;-144.13;94.42
76374;BME280;65197;50.164;8.012;2023-07-30T00:59:32;71852.97;;;-144.13;94.23
76374;BME280;65197;50.164;8.012;2023-07-30T01:01:59;71856.84;;;-144.13;94.10
76374;BME280;65197;50.164;8.012;2023-07-30T01:04:25;71858.81;;;-144.13;94.42
76374;BME280;65197;50.164;8.012;2023-07-30T01:06:50;71872.44;;;-144.13;94.33
76374;BME280;65197;50.164;8.012;2023-07-30T01:09:16;71872.44;;;-144.13;94.25
76374;BME280;65197;50.164;8.012;2023-07-30T01:11:42;71880.25;;;-144.13;94.17
76374;BME280;65197;50.164;8.012;2023-07-30T01:14:09;71886.09;;;-144.13;94.57
76374;BME280;65197;50.164;8.012;2023-07-30T01:16:35;71891.97;;;-144.13;95.53
76374;BME280;65197;50.164;8.012;2023-07-30T01:19:00;71895.84;;;-144.13;96.04
76374;BME280;65197;50.164;8.012;2023-07-30T01:21:32;71903.66;;;-144.13;96.48
76374;BME280;65197;50.164;8.012;2023-07-30T01:23:57;71907.56;;;-144.13;96.34
76374;BME280;65197;50.164;8.012;2023-07-30T01:26:26;71899.75;;;-144.13;97.11
76374;BME280;65197;50.164;8.012;2023-07-30T01:28:56;71895.84;;;-144.13;96.41
76374;BME280;65197;50.164;8.012;2023-07-30T01:31:25;71899.75;;;-144.13;96.79
76374;BME280;65197;50.164;8.012;2023-07-30T01:33:53;71903.66;;;-144.13;96.78
76374;BME280;65197;50.164;8.012;2023-07-30T01:36:19;71899.75;;;-144.13;96.76
76374;BME280;65197;50.164;8.012;2023-07-30T01:38:47;71915.34;;;-144.13;96.90
76374;BME280;65197;50.164;8.012;2023-07-30T01:41:13;71917.31;;;-144.13;97.54
76374;BME280;65197;50.164;8.012;2023-07-30T01:43:38;71921.19;;;-144.13;98.05
76374;BME280;65197;50.164;8.012;2023-07-30T01:46:04;71925.09;;;-144.13;98.27
76374;BME280;65197;50.164;8.012;2023-07-30T01:48:29;71927.06;;;-144.13;98.60
76374;BME280;65197;50.164;8.012;2023-07-30T01:50:54;71927.06;;;-144.13;98.59
76374;BME280;65197;50.164;8.012;2023-07-30T01:53:20;71929.00;;;-144.13;98.45
76374;BME280;65197;50.164;8.012;2023-07-30T01:55:45;71930.94;;;-144.13;98.17
76374;BME280;65197;50.164;8.012;2023-07-30T01:58:12;71927.06;;;-144.13;97.96
76374;BME280;65197;50.164;8.012;2023-07-30T02:00:38;71930.94;;;-144.13;97.94
76374;BME280;65197;50.164;8.012;2023-07-30T02:03:04;71927.06;;;-144.13;98.12
76374;BME280;65197;50.164;8.012;2023-07-30T02:05:30;71932.91;;;-144.13;97.74
76374;BME280;65197;50.164;8.012;2023-07-30T02:07:55;71930.94;;;-144.13;96.96
76374;BME280;65197;50.164;8.012;2023-07-30T02:10:21;71929.00;;;-144.13;96.99
76374;BME280;65197;50.164;8.012;2023-07-30T02:12:46;71917.31;;;-144.13;96.26
76374;BME280;65197;50.164;8.012;2023-07-30T02:15:12;71923.16;;;-144.13;96.32
76374;BME280;65197;50.164;8.012;2023-07-30T02:17:37;71932.91;;;-144.13;96.37
76374;BME280;65197;50.164;8.012;2023-07-30T02:20:03;71930.94;;;-144.13;96.82
76374;BME280;65197;50.164;8.012;2023-07-30T02:22:28;71930.94;;;-144.13;96.22
76374;BME280;65197;50.164;8.012;2023-07-30T02:24:53;71927.06;;;-144.13;94.72
76374;BME280;65197;50.164;8.012;2023-07-30T02:27:22;71932.91;;;-144.13;94.68
76374;BME280;65197;50.164;8.012;2023-07-30T02:29:47;71938.75;;;-144.13;94.51
76374;BME280;65197;50.164;8.012;2023-07-30T02:32:13;71938.75;;;-144.13;94.40
76374;BME280;65197;50.164;8.012;2023-07-30T02:34:38;71942.66;;;-144.13;93.85
76374;BME280;65197;50.164;8.012;2023-07-30T02:37:04;71942.66;;;-144.13;94.40
76374;BME280;65197;50.164;8.012;2023-07-30T02:39:29;71942.66;;;-144.13;94.45
76374;BME280;65197;50.164;8.012;2023-07-30T02:41:54;71950.44;;;-144.13;94.60
76374;BME280;65197;50.164;8.012;2023-07-30T02:44:20;71950.44;;;-144.13;94.32
76374;BME280;65197;50.164;8.012;2023-07-30T02:46:45;71938.75;;;-144.13;94.16
76374;BME280;65197;50.164;8.012;2023-07-30T02:49:10;71948.50;;;-144.13;94.10
76374;BME280;65197;50.164;8.012;2023-07-30T02:51:36;71946.56;;;-144.13;94.12
76374;BME280;65197;50.164;8.012;2023-07-30T02:54:04;71944.59;;;-144.13;93.88
76374;BME280;65197;50.164;8.012;2023-07-30T02:56:30;71950.44;;;-144.13;93.91
76374;BME280;65197;50.164;8.012;2023-07-30T02:58:58;71954.34;;;-144.13;93.86
76374;BME280;65197;50.164;8.012;2023-07-30T03:01:23;71956.31;;;-144.13;93.07
76374;BME280;65197;50.164;8.012;2023-07-30T03:03:49;71958.25;;;-144.13;93.80
76374;BME280;65197;50.164;8.012;2023-07-30T03:06:14;71960.19;;;-144.13;93.15
76374;BME280;65197;50.164;8.012;2023-07-30T03:08:42;71966.06;;;-144.13;93.60
76374;BME280;65197;50.164;8.012;2023-07-30T03:11:07;71973.84;;;-144.13;93.56
76374;BME280;65197;50.164;8.012;2023-07-30T03:13:32;71977.75;;;-144.13;94.11
76374;BME280;65197;50.164;8.012;2023-07-30T03:15:58;71977.75;;;-144.13;94.07
76374;BME280;65197;50.164;8.012;2023-07-30T03:18:23;71977.75;;;-144.13;93.99
76374;BME280;65197;50.164;8.012;2023-07-30T03:20:48;71993.34;;;-144.13;93.78
76374;BME280;65197;50.164;8.012;2023-07-30T03:23:14;71993.34;;;-144.13;94.05
76374;BME280;65197;50.164;8.012;2023-07-30T03:25:39;72001.16;;;-144.13;94.39
76374;BME280;65197;50.164;8.012;2023-07-30T03:28:05;72005.06;;;-144.13;94.25
76374;BME280;65197;50.164;8.012;2023-07-30T03:30:30;72016.75;;;-144.13;94.98
76374;BME280;65197;50.164;8.012;2023-07-30T03:32:55;72034.31;;;-144.13;95.36
76374;BME280;65197;50.164;8.012;2023-07-30T03:35:21;72034.31;;;-144.13;96.05
76374;BME280;65197;50.164;8.012;2023-07-30T03:37:46;72042.09;;;-144.13;96.88
76374;BME280;65197;50.164;8.012;2023-07-30T03:40:12;72059.66;;;-144.13;96.25
76374;BME280;65197;50.164;8.012;2023-07-30T03:42:37;72061.59;;;-144.13;95.89
76374;BME280;65197;50.164;8.012;2023-07-30T03:45:03;72075.25;;;-144.13;96.18
76374;BME280;65197;50.164;8.012;2023-07-30T03:47:28;72085.00;;;-144.13;96.23
76374;BME280;65197;50.164;8.012;2023-07-30T03:49:53;72094.75;;;-144.13;96.90
76374;BME280;65197;50.164;8.012;2023-07-30T03:52:19;72106.44;;;-144.13;97.61
76374;BME280;65197;50.164;8.012;2023-07-30T03:54:44;72098.66;;;-144.13;98.77
76374;BME280;65197;50.164;8.012;2023-07-30T03:57:09;72094.75;;;-144.13;98.26
76374;BME280;65197;50.164;8.012;2023-07-30T03:59:35;72106.44;;;-144.13;98.30
76374;BME280;65197;50.164;8.012;2023-07-30T04:02:00;72120.09;;;-144.13;98.23
76374;BME280;65197;50.164;8.012;2023-07-30T04:04:26;72118.16;;;-144.13;98.42
76374;BME280;65197;50.164;8.012;2023-07-30T04:06:51;72118.16;;;-144.13;98.41
76374;BME280;65197;50.164;8.012;2023-07-30T04:09:16;72124.00;;;-144.13;97.92
76374;BME280;65197;50.164;8.012;2023-07-30T04:11:42;72129.84;;;-144.13;98.42
76374;BME280;65197;50.164;8.012;2023-07-30T04:14:07;72129.84;;;-144.13;98.68
76374;BME280;65197;50.164;8.012;2023-07-30T04:16:34;72120.09;;;-144.13;98.95
76374;BME280;65197;50.164;8.012;2023-07-30T04:18:59;72110.34;;;-144.13;98.42
76374;BME280;65197;50.164;8.012;2023-07-30T04:21:25;72104.50;;;-144.13;98.27
76374;BME280;65197;50.164;8.012;2023-07-30T04:23:50;72085.00;;;-144.13;97.41
76374;BME280;65197;50.164;8.012;2023-07-30T04:26:16;72077.19;;;-144.13;96.73
76374;BME280;65197;50.164;8.012;2023-07-30T04:28:41;72065.50;;;-144.13;96.51
76374;BME280;65197;50.164;8.012;2023-07-30T04:31:07;72053.81;;;-144.13;96.35
76374;BME280;65197;50.164;8.012;2023-07-30T04:33:32;72040.16;;;-144.13;94.90
76374;BME280;65197;50.164;8.012;2023-07-30T04:35:57;72020.66;;;-144.13;94.35
76374;BME280;65197;50.164;8.012;2023-07-30T04:38:23;72001.16;;;-144.13;93.86
76374;BME280;65197;50.164;8.012;2023-07-30T04:40:48;71993.34;;;-144.13;92.90
76374;BME280;65197;50.164;8.012;2023-07-30T04:43:14;71975.81;;;-144.13;92.82
76374;BME280;65197;50.164;8.012;2023-07-30T04:45:39;71977.75;;;-144.13;92.25
76374;BME280;65197;50.164;8.012;2023-07-30T04:48:05;71973.84;;;-144.13;91.46
76374;BME280;65197;50.164;8.012;2023-07-30T04:50:30;71950.44;;;-144.13;90.70
76374;BME280;65197;50.164;8.012;2023-07-30T04:52:56;71934.84;;;-144.13;90.13
76374;BME280;65197;50.164;8.012;2023-07-30T04:55:21;71911.44;;;-144.13;88.21
76374;BME280;65197;50.164;8.012;2023-07-30T04:57:46;71884.16;;;-144.13;87.26
76374;BME280;65197;50.164;8.012;2023-07-30T05:00:12;71868.56;;;-144.13;86.25
76374;BME280;65197;50.164;8.012;2023-07-30T05:02:37;71839.31;;;-144.13;85.55
76374;BME280;65197;50.164;8.012;2023-07-30T05:05:03;71817.84;;;-144.13;84.87
76374;BME280;65197;50.164;8.012;2023-07-30T05:07:29;71790.56;;;-144.13;83.43
76374;BME280;65197;50.164;8.012;2023-07-30T05:09:54;71743.75;;;-144.13;82.42
76374;BME280;65197;50.164;8.012;2023-07-30T05:12:19;71708.66;;;-144.13;81.52
76374;BME280;65197;50.164;8.012;2023-07-30T05:14:45;71689.16;;;-144.13;78.70
76374;BME280;65197;50.164;8.012;2023-07-30T05:17:10;71700.88;;;-144.13;79.66
76374;BME280;65197;50.164;8.012;2023-07-30T05:19:35;71720.38;;;-144.13;78.64
76374;BME280;65197;50.164;8.012;2023-07-30T05:22:01;71728.16;;;-144.13;79.65
76374;BME280;65197;50.164;8.012;2023-07-30T05:24:27;71739.88;;;-144.13;79.84
76374;BME280;65197;50.164;8.012;2023-07-30T05:26:53;71763.25;;;-144.13;80.82
76374;BME280;65197;50.164;8.012;2023-07-30T05:29:18;71778.88;;;-144.13;82.51
76374;BME280;65197;50.164;8.012;2023-07-30T05:31:43;71722.31;;;-144.13;81.10
76374;BME280;65197;50.164;8.012;2023-07-30T05:34:09;71673.56;;;-144.13;80.69
76374;BME280;65197;50.164;8.012;2023-07-30T05:36:34;71677.47;;;-144.13;77.97
76374;BME280;65197;50.164;8.012;2023-07-30T05:38:59;71681.38;;;-144.13;78.56
76374;BME280;65197;50.164;8.012;2023-07-30T05:41:25;71685.28;;;-144.13;78.50
76374;BME280;65197;50.164;8.012;2023-07-30T05:43:50;71695.00;;;-144.13;79.11
76374;BME280;65197;50.164;8.012;2023-07-30T05:46:16;71706.72;;;-144.13;79.42
76374;BME280;65197;50.164;8.012;2023-07-30T05:48:41;71704.75;;;-144.13;79.45
76374;BME280;65197;50.164;8.012;2023-07-30T05:51:06;71615.06;;;-144.13;78.36
76374;BME280;65197;50.164;8.012;2023-07-30T05:53:32;71550.72;;;-144.13;75.65
76374;BME280;65197;50.164;8.012;2023-07-30T05:55:57;71513.69;;;-144.13;72.36
76374;BME280;65197;50.164;8.012;2023-07-30T05:58:22;71505.88;;;-144.13;71.07
76374;BME280;65197;50.164;8.012;2023-07-30T06:00:48;71589.72;;;-144.13;71.96
76374;BME280;65197;50.164;8.012;2023-07-30T06:03:13;71634.56;;;-144.13;74.16
76374;BME280;65197;50.164;8.012;2023-07-30T06:05:42;71677.47;;;-144.13;75.50
76374;BME280;65197;50.164;8.012;2023-07-30T06:08:08;71681.38;;;-144.13;77.36
76374;BME280;65197;50.164;8.012;2023-07-30T06:10:37;71685.28;;;-144.13;77.79
76374;BME280;65197;50.164;8.012;2023-07-30T06:13:06;71696.97;;;-144.13;79.87
76374;BME280;65197;50.164;8.012;2023-07-30T06:15:32;71718.41;;;-144.13;80.39
76374;BME280;65197;50.164;8.012;2023-07-30T06:17:58;71724.25;;;-144.13;80.80
76374;BME280;65197;50.164;8.012;2023-07-30T06:20:23;71747.66;;;-144.13;81.26
76374;BME280;65197;50.164;8.012;2023-07-30T06:22:48;71771.06;;;-144.13;82.67
76374;BME280;65197;50.164;8.012;2023-07-30T06:25:14;71782.75;;;-144.13;82.30
76374;BME280;65197;50.164;8.012;2023-07-30T06:27:39;71794.47;;;-144.13;83.06
76374;BME280;65197;50.164;8.012;2023-07-30T06:30:05;71810.06;;;-144.13;84.97
76374;BME280;65197;50.164;8.012;2023-07-30T06:32:30;71819.81;;;-144.13;84.87
76374;BME280;65197;50.164;8.012;2023-07-30T06:34:56;71819.81;;;-144.13;85.76
76374;BME280;65197;50.164;8.012;2023-07-30T06:37:21;71821.75;;;-144.13;85.64
76374;BME280;65197;50.164;8.012;2023-07-30T06:39:46;71819.81;;;-144.13;85.73
76374;BME280;65197;50.164;8.012;2023-07-30T06:42:12;71847.09;;;-144.13;86.88
76374;BME280;65197;50.164;8.012;2023-07-30T06:44:37;71864.66;;;-144.13;89.49
76374;BME280;65197;50.164;8.012;2023-07-30T06:47:03;71872.44;;;-144.13;88.29
76374;BME280;65197;50.164;8.012;2023-07-30T06:49:29;71866.59;;;-144.13;90.80
76374;BME280;65197;50.164;8.012;2023-07-30T06:51:55;71864.66;;;-144.13;92.21
76374;BME280;65197;50.164;8.012;2023-07-30T06:54:20;71866.59;;;-144.13;92.94
76374;BME280;65197;50.164;8.012;2023-07-30T06:56:46;71852.97;;;-144.13;93.24
76374;BME280;65197;50.164;8.012;2023-07-30T06:59:11;71864.66;;;-144.13;93.89
76374;BME280;65197;50.164;8.012;2023-07-30T07:01:36;71856.84;;;-144.13;94.72
76374;BME280;65197;50.164;8.012;2023-07-30T07:04:02;71856.84;;;-144.13;94.07
76374;BME280;65197;50.164;8.012;2023-07-30T07:06:27;71864.66;;;-144.13;93.02
76374;BME280;65197;50.164;8.012;2023-07-30T07:08:52;71852.97;;;-144.13;92.51
76374;BME280;65197;50.164;8.012;2023-07-30T07:11:18;71864.66;;;-144.13;92.02
76374;BME280;65197;50.164;8.012;2023-07-30T07:13:44;71860.75;;;-144.13;87.46
76374;BME280;65197;50.164;8.012;2023-07-30T07:16:09;71833.47;;;-144.13;89.37
76374;BME280;65197;50.164;8.012;2023-07-30T07:18:34;71810.06;;;-144.13;91.25
76374;BME280;65197;50.164;8.012;2023-07-30T07:21:00;71790.56;;;-144.13;90.81
76374;BME280;65197;50.164;8.012;2023-07-30T07:23:25;71802.25;;;-144.13;87.81
76374;BME280;65197;50.164;8.012;2023-07-30T07:25:52;71790.56;;;-144.13;87.69
76374;BME280;65197;50.164;8.012;2023-07-30T07:28:17;71808.09;;;-144.13;86.74
76374;BME280;65197;50.164;8.012;2023-07-30T07:30:44;71829.56;;;-144.13;87.29
76374;BME280;65197;50.164;8.012;2023-07-30T07:33:10;71829.56;;;-144.13;89.02
76374;BME280;65197;50.164;8.012;2023-07-30T07:35:40;71829.56;;;-144.13;87.69
76374;BME280;65197;50.164;8.012;2023-07-30T07:38:06;71802.25;;;-144.13;89.79
76374;BME280;65197;50.164;8.012;2023-07-30T07:40:36;71782.75;;;-144.13;88.79
76374;BME280;65197;50.164;8.012;2023-07-30T07:43:04;71765.22;;;-144.13;87.47
76374;BME280;65197;50.164;8.012;2023-07-30T07:45:30;71745.72;;;-144.13;88.61
76374;BME280;65197;50.164;8.012;2023-07-30T07:47:55;71771.06;;;-144.13;87.82
76374;BME280;65197;50.164;8.012;2023-07-30T07:50:20;71810.06;;;-144.13;86.12
76374;BME280;65197;50.164;8.012;2023-07-30T07:52:46;71808.09;;;-144.13;85.57
76374;BME280;65197;50.164;8.012;2023-07-30T07:55:11;71825.66;;;-144.13;87.42
76374;BME280;65197;50.164;8.012;2023-07-30T07:57:36;71825.66;;;-144.13;89.00
76374;BME280;65197;50.164;8.012;2023-07-30T08:00:02;71817.84;;;-144.13;89.92
76374;BME280;65197;50.164;8.012;2023-07-30T08:02:30;71798.34;;;-144.13;90.52
76374;BME280;65197;50.164;8.012;2023-07-30T08:04:55;71790.56;;;-144.13;89.63
76374;BME280;65197;50.164;8.012;2023-07-30T08:07:21;71782.75;;;-144.13;90.39
76374;BME280;65197;50.164;8.012;2023-07-30T08:09:46;71788.59;;;-144.13;89.13
76374;BME280;65197;50.164;8.012;2023-07-30T08:12:12;71817.84;;;-144.13;88.48
76374;BME280;65197;50.164;8.012;2023-07-30T08:14:38;71833.47;;;-144.13;86.48
76374;BME280;65197;50.164;8.012;2023-07-30T08:17:03;71833.47;;;-144.13;89.40
76374;BME280;65197;50.164;8.012;2023-07-30T08:19:29;71837.34;;;-144.13;90.08
76374;BME280;65197;50.164;8.012;2023-07-30T08:21:55;71849.06;;;-144.13;92.14
76374;BME280;65197;50.164;8.012;2023-07-30T08:24:22;71884.16;;;-144.13;93.92
76374;BME280;65197;50.164;8.012;2023-07-30T08:26:47;71895.84;;;-144.13;96.96
76374;BME280;65197;50.164;8.012;2023-07-30T08:29:13;71903.66;;;-144.13;98.90
76374;BME280;65197;50.164;8.012;2023-07-30T08:31:39;71905.59;;;-144.13;99.78
76374;BME280;65197;50.164;8.012;2023-07-30T08:34:04;71911.44;;;-144.13;100.00
76374;BME280;65197;50.164;8.012;2023-07-30T08:36:29;71917.31;;;-144.13;100.00
76374;BME280;65197;50.164;8.012;2023-07-30T08:38:55;71921.19;;;-144.13;100.00
76374;BME280;65197;50.164;8.012;2023-07-30T08:41:20;71934.84;;;-144.13;100.00
76374;BME280;65197;50.164;8.012;2023-07-30T08:43:46;71938.75;;;-144.13;100.00
76374;BME280;65197;50.164;8.012;2023-07-30T08:46:17;71962.16;;;-144.13;100.00
76374;BME280;65197;50.164;8.012;2023-07-30T08:48:43;71997.25;;;-144.13;100.00
76374;BME280;65197;50.164;8.012;2023-07-30T08:51:08;72038.19;;;-144.13;100.00
76374;BME280;65197;50.164;8.012;2023-07-30T08:53:34;72083.06;;;-144.13;100.00
76374;BME280;65197;50.164;8.012;2023-07-30T08:56:00;72098.66;;;-144.13;100.00
76374;BME280;65197;50.164;8.012;2023-07-30T08:58:27;72106.44;;;-144.13;100.00
76374;BME280;65197;50.164;8.012;2023-07-30T09:00:55;72125.94;;;-144.13;100.00
76374;BME280;65197;50.164;8.012;2023-07-30T09:03:23;72118.16;;;-144.13;100.00
76374;BME280;65197;50.164;8.012;2023-07-30T09:05:49;72098.66;;;-144.13;100.00
76374;BME280;65197;50.164;8.012;2023-07-30T09:08:15;72081.09;;;-144.13;100.00
76374;BME280;65197;50.164;8.012;2023-07-30T09:10:42;72075.25;;;-144.13;100.00
76374;BME280;65197;50.164;8.012;2023-07-30T09:13:08;72071.34;;;-144.13;100.00
76374;BME280;65197;50.164;8.012;2023-07-30T09:15:35;72059.66;;;-144.13;100.00
76374;BME280;65197;50.164;8.012;2023-07-30T09:18:03;72047.94;;;-144.13;100.00
76374;BME280;65197;50.164;8.012;2023-07-30T09:20:36;71993.34;;;-144.13;100.00
76374;BME280;65197;50.164;8.012;2023-07-30T09:23:02;71962.16;;;-144.13;100.00
76374;BME280;65197;50.164;8.012;2023-07-30T09:25:27;72003.09;;;-144.13;97.72
76374;BME280;65197;50.164;8.012;2023-07-30T09:27:53;72016.75;;;-144.13;99.37
76374;BME280;65197;50.164;8.012;2023-07-30T09:30:22;71954.34;;;-144.13;98.32
76374;BME280;65197;50.164;8.012;2023-07-30T09:32:54;71938.75;;;-144.13;92.99
76374;BME280;65197;50.164;8.012;2023-07-30T09:35:21;71944.59;;;-144.13;95.96
76374;BME280;65197;50.164;8.012;2023-07-30T09:37:47;71938.75;;;-144.13;93.82
76374;BME280;65197;50.164;8.012;2023-07-30T09:40:14;71923.16;;;-144.13;94.47
76374;BME280;65197;50.164;8.012;2023-07-30T09:42:46;71973.84;;;-144.13;92.94
76374;BME280;65197;50.164;8.012;2023-07-30T09:45:26;72008.94;;;-144.13;93.29
76374;BME280;65197;50.164;8.012;2023-07-30T09:47:54;72075.25;;;-144.13;93.42
76374;BME280;65197;50.164;8.012;2023-07-30T09:50:21;72086.94;;;-144.13;95.12
76374;BME280;65197;50.164;8.012;2023-07-30T09:52:46;72024.56;;;-144.13;94.66
76374;BME280;65197;50.164;8.012;2023-07-30T09:55:12;71966.06;;;-144.13;91.32
76374;BME280;65197;50.164;8.012;2023-07-30T09:57:38;71895.84;;;-144.13;88.83
76374;BME280;65197;50.164;8.012;2023-07-30T10:00:05;71759.34;;;-144.13;85.27
76374;BME280;65197;50.164;8.012;2023-07-30T10:02:32;71638.47;;;-144.13;80.32
76374;BME280;65197;50.164;8.012;2023-07-30T10:05:03;71659.91;;;-144.13;77.23
76374;BME280;65197;50.164;8.012;2023-07-30T10:07:34;71628.72;;;-144.13;74.22
76374;BME280;65197;50.164;8.012;2023-07-30T10:10:01;71626.78;;;-144.13;75.39
76374;BME280;65197;50.164;8.012;2023-07-30T10:12:31;71605.31;;;-144.13;76.14
76374;BME280;65197;50.164;8.012;2023-07-30T10:14:57;71720.38;;;-144.13;77.44
76374;BME280;65197;50.164;8.012;2023-07-30T10:17:22;71751.56;;;-144.13;77.57
76374;BME280;65197;50.164;8.012;2023-07-30T10:19:49;71769.09;;;-144.13;81.22
76374;BME280;65197;50.164;8.012;2023-07-30T10:25:09;71794.47;;;-144.13;77.79
76374;BME280;65197;50.164;8.012;2023-07-30T10:27:39;71827.59;;;-144.13;77.80
76374;BME280;65197;50.164;8.012;2023-07-30T10:30:09;71919.25;;;-144.13;79.45
76374;BME280;65197;50.164;8.012;2023-07-30T10:35:39;71952.41;;;-144.13;83.59
76374;BME280;65197;50.164;8.012;2023-07-30T10:38:22;71878.31;;;-144.13;82.57
76374;BME280;65197;50.164;8.012;2023-07-30T10:41:08;71884.16;;;-144.13;81.73
76374;BME280;65197;50.164;8.012;2023-07-30T10:43:40;71942.66;;;-144.13;80.80
76374;BME280;65197;50.164;8.012;2023-07-30T10:46:06;71825.66;;;-144.13;76.73
76374;BME280;65197;50.164;8.012;2023-07-30T10:48:37;71831.50;;;-144.13;73.88
76374;BME280;65197;50.164;8.012;2023-07-30T10:51:06;71872.44;;;-144.13;75.38
76374;BME280;65197;50.164;8.012;2023-07-30T10:53:32;71907.56;;;-144.13;78.02
76374;BME280;65197;50.164;8.012;2023-07-30T10:56:00;71934.84;;;-144.13;79.41
76374;BME280;65197;50.164;8.012;2023-07-30T10:58:29;71977.75;;;-144.13;77.60
76374;BME280;65197;50.164;8.012;2023-07-30T11:00:55;72040.16;;;-144.13;80.22
76374;BME280;65197;50.164;8.012;2023-07-30T11:03:24;72047.94;;;-144.13;81.66
76374;BME280;65197;50.164;8.012;2023-07-30T11:05:51;72024.56;;;-144.13;83.49
76374;BME280;65197;50.164;8.012;2023-07-30T11:08:16;71956.31;;;-144.13;80.71
76374;BME280;65197;50.164;8.012;2023-07-30T11:10:43;71856.84;;;-144.13;76.80
76374;BME280;65197;50.164;8.012;2023-07-30T11:13:09;71767.16;;;-144.13;73.23
76374;BME280;65197;50.164;8.012;2023-07-30T11:15:41;71693.06;;;-144.13;71.92
76374;BME280;65197;50.164;8.012;2023-07-30T11:18:07;71739.88;;;-144.13;69.26
76374;BME280;65197;50.164;8.012;2023-07-30T11:20:32;71792.50;;;-144.13;71.24
76374;BME280;65197;50.164;8.012;2023-07-30T11:22:57;71817.84;;;-144.13;69.71
76374;BME280;65197;50.164;8.012;2023-07-30T11:25:23;71806.16;;;-144.13;67.08
76374;BME280;65197;50.164;8.012;2023-07-30T11:27:49;71806.16;;;-144.13;66.27
76374;BME280;65197;50.164;8.012;2023-07-30T11:30:16;71806.16;;;-144.13;67.88
76374;BME280;65197;50.164;8.012;2023-07-30T11:32:42;71774.97;;;-144.13;67.81
76374;BME280;65197;50.164;8.012;2023-07-30T11:35:13;71817.84;;;-144.13;66.25
76374;BME280;65197;50.164;8.012;2023-07-30T11:37:41;71860.75;;;-144.13;65.84
76374;BME280;65197;50.164;8.012;2023-07-30T11:40:11;71821.75;;;-144.13;67.38
76374;BME280;65197;50.164;8.012;2023-07-30T11:42:37;71786.66;;;-144.13;65.86
76374;BME280;65197;50.164;8.012;2023-07-30T11:45:22;71784.72;;;-144.13;67.83
76374;BME280;65197;50.164;8.012;2023-07-30T11:47:48;71798.34;;;-144.13;63.91
76374;BME280;65197;50.164;8.012;2023-07-30T11:50:14;71794.47;;;-144.13;62.81
76374;BME280;65197;50.164;8.012;2023-07-30T11:52:56;71702.81;;;-144.13;63.00
76374;BME280;65197;50.164;8.012;2023-07-30T11:55:22;71609.22;;;-144.13;60.80
76374;BME280;65197;50.164;8.012;2023-07-30T11:57:49;71552.69;;;-144.13;56.56
76374;BME280;65197;50.164;8.012;2023-07-30T12:00:15;71500.03;;;-144.13;56.20
76374;BME280;65197;50.164;8.012;2023-07-30T12:02:41;71474.69;;;-144.13;53.27
76374;BME280;65197;50.164;8.012;2023-07-30T12:05:10;71568.28;;;-144.13;54.05
76374;BME280;65197;50.164;8.012;2023-07-30T12:07:40;71626.78;;;-144.13;55.47
76374;BME280;65197;50.164;8.012;2023-07-30T12:10:09;71618.97;;;-144.13;52.04
76374;BME280;65197;50.164;8.012;2023-07-30T12:12:35;71630.66;;;-144.13;54.10
76374;BME280;65197;50.164;8.012;2023-07-30T12:15:00;71630.66;;;-144.13;54.78
76374;BME280;65197;50.164;8.012;2023-07-30T12:17:26;71689.16;;;-144.13;56.13
76374;BME280;65197;50.164;8.012;2023-07-30T12:19:51;71708.66;;;-144.13;55.82
76374;BME280;65197;50.164;8.012;2023-07-30T12:22:16;71798.34;;;-144.13;57.44
76374;BME280;65197;50.164;8.012;2023-07-30T12:24:42;71817.84;;;-144.13;59.62
76374;BME280;65197;50.164;8.012;2023-07-30T12:27:07;71815.91;;;-144.13;62.13
76374;BME280;65197;50.164;8.012;2023-07-30T12:29:33;71837.34;;;-144.13;61.55
76374;BME280;65197;50.164;8.012;2023-07-30T12:31:58;71810.06;;;-144.13;61.43
76374;BME280;65197;50.164;8.012;2023-07-30T12:34:24;71657.97;;;-144.13;59.62
76374;BME280;65197;50.164;8.012;2023-07-30T12:36:49;71581.94;;;-144.13;56.56
76374;BME280;65197;50.164;8.012;2023-07-30T12:39:15;71525.38;;;-144.13;54.31
76374;BME280;65197;50.164;8.012;2023-07-30T12:41:40;71539.03;;;-144.13;52.49